Saint Johns, Michigan
Current Conditions -  °F | °C
As of 5:53 AM on Saturday 25 Oct 2014 (Local Time) from KLAN Reporting Station
Haze Haze  
Wind Chill: 52°   Ceiling: 4100
Heat Index: 52°   Visibility: 6mi
Dew Point: 48°   Wind: 7mph
Humidity: 86%   Direction: 230°SW
Pressure: 29.85"   Gusts: NA
Location:  43°N, 84.56°W
Report Text: KLAN 250953Z 23006KT 6SM BR BKN041 OVC049 11/09 A2985 RMK AO2 SLP109 T01110089
Loading
Personal Weather Stations






























Interactive Weather Map
Tropical Storm Tracking
New forecast layout! Learn more

10-Day Weather Forecast

Advertisements
Track Severe Weather on mobile